sensor_id;sensor_type;location;lat;lon;timestamp;temperature;humidity
24158;DHT22;12316;50.904;4.200;2023-01-28T00:01:41;6.50;99.90
24158;DHT22;12316;50.904;4.200;2023-01-28T00:04:06;6.30;99.90
24158;DHT22;12316;50.904;4.200;2023-01-28T00:06:32;6.30;99.90
24158;DHT22;12316;50.904;4.200;2023-01-28T00:08:57;6.40;99.90
24158;DHT22;12316;50.904;4.200;2023-01-28T00:11:23;6.30;99.90
24158;DHT22;12316;50.904;4.200;2023-01-28T00:13:52;6.00;99.90
24158;DHT22;12316;50.904;4.200;2023-01-28T00:16:19;6.10;99.90
24158;DHT22;12316;50.904;4.200;2023-01-28T00:18:44;6.20;99.90
24158;DHT22;12316;50.904;4.200;2023-01-28T00:21:12;6.30;99.90
24158;DHT22;12316;50.904;4.200;2023-01-28T00:23:39;6.30;99.90
24158;DHT22;12316;50.904;4.200;2023-01-28T00:26:09;6.20;99.90
24158;DHT22;12316;50.904;4.200;2023-01-28T00:28:35;6.20;99.90
24158;DHT22;12316;50.904;4.200;2023-01-28T00:31:21;6.30;99.90
24158;DHT22;12316;50.904;4.200;2023-01-28T00:33:49;6.30;99.90
24158;DHT22;12316;50.904;4.200;2023-01-28T00:36:16;6.30;99.90
24158;DHT22;12316;50.904;4.200;2023-01-28T00:38:42;6.10;99.90
24158;DHT22;12316;50.904;4.200;2023-01-28T00:41:12;6.20;99.90
24158;DHT22;12316;50.904;4.200;2023-01-28T00:43:39;6.20;99.90
24158;DHT22;12316;50.904;4.200;2023-01-28T00:46:08;6.30;99.90
24158;DHT22;12316;50.904;4.200;2023-01-28T00:48:34;6.10;99.90
24158;DHT22;12316;50.904;4.200;2023-01-28T00:51:00;6.20;99.90
24158;DHT22;12316;50.904;4.200;2023-01-28T00:53:25;6.10;99.90
24158;DHT22;12316;50.904;4.200;2023-01-28T00:55:51;6.10;99.90
24158;DHT22;12316;50.904;4.200;2023-01-28T00:58:18;6.20;99.90
24158;DHT22;12316;50.904;4.200;2023-01-28T01:00:43;6.30;99.90
24158;DHT22;12316;50.904;4.200;2023-01-28T01:03:10;6.20;99.90
24158;DHT22;12316;50.904;4.200;2023-01-28T01:05:36;6.30;99.90
24158;DHT22;12316;50.904;4.200;2023-01-28T01:08:01;6.30;99.90
24158;DHT22;12316;50.904;4.200;2023-01-28T01:10:27;6.30;99.90
24158;DHT22;12316;50.904;4.200;2023-01-28T01:12:54;6.30;99.90
24158;DHT22;12316;50.904;4.200;2023-01-28T01:15:23;6.30;99.90
24158;DHT22;12316;50.904;4.200;2023-01-28T01:17:49;6.20;99.90
24158;DHT22;12316;50.904;4.200;2023-01-28T01:20:20;6.10;99.90
24158;DHT22;12316;50.904;4.200;2023-01-28T01:22:46;6.10;99.90
24158;DHT22;12316;50.904;4.200;2023-01-28T01:25:14;6.10;99.90
24158;DHT22;12316;50.904;4.200;2023-01-28T01:27:40;6.20;99.90
24158;DHT22;12316;50.904;4.200;2023-01-28T01:30:06;6.10;99.90
24158;DHT22;12316;50.904;4.200;2023-01-28T01:32:34;6.10;99.90
24158;DHT22;12316;50.904;4.200;2023-01-28T01:35:00;6.10;99.90
24158;DHT22;12316;50.904;4.200;2023-01-28T01:37:25;6.00;99.90
24158;DHT22;12316;50.904;4.200;2023-01-28T01:39:51;5.90;99.90
24158;DHT22;12316;50.904;4.200;2023-01-28T01:42:17;6.00;99.90
24158;DHT22;12316;50.904;4.200;2023-01-28T01:44:55;5.90;99.90
24158;DHT22;12316;50.904;4.200;2023-01-28T01:50:35;5.90;99.90
24158;DHT22;12316;50.904;4.200;2023-01-28T01:53:09;5.80;99.90
24158;DHT22;12316;50.904;4.200;2023-01-28T01:55:39;5.90;99.90
24158;DHT22;12316;50.904;4.200;2023-01-28T01:58:09;5.90;99.90
24158;DHT22;12316;50.904;4.200;2023-01-28T02:00:36;6.00;99.90
24158;DHT22;12316;50.904;4.200;2023-01-28T02:03:02;6.10;99.90
24158;DHT22;12316;50.904;4.200;2023-01-28T02:05:28;6.10;99.90
24158;DHT22;12316;50.904;4.200;2023-01-28T02:07:56;6.10;99.90
24158;DHT22;12316;50.904;4.200;2023-01-28T02:10:43;6.10;99.90
24158;DHT22;12316;50.904;4.200;2023-01-28T02:13:09;6.10;99.90
24158;DHT22;12316;50.904;4.200;2023-01-28T02:15:35;6.10;99.90
24158;DHT22;12316;50.904;4.200;2023-01-28T02:18:01;6.10;99.90
24158;DHT22;12316;50.904;4.200;2023-01-28T02:29:15;5.90;99.90
24158;DHT22;12316;50.904;4.200;2023-01-28T02:31:52;5.90;99.90
24158;DHT22;12316;50.904;4.200;2023-01-28T02:36:58;6.10;99.90
24158;DHT22;12316;50.904;4.200;2023-01-28T02:39:34;6.00;99.90
24158;DHT22;12316;50.904;4.200;2023-01-28T02:42:12;5.90;99.90
24158;DHT22;12316;50.904;4.200;2023-01-28T02:44:40;6.00;99.90
24158;DHT22;12316;50.904;4.200;2023-01-28T02:47:11;6.10;99.90
24158;DHT22;12316;50.904;4.200;2023-01-28T02:49:57;6.10;99.90
24158;DHT22;12316;50.904;4.200;2023-01-28T02:55:39;6.20;99.90
24158;DHT22;12316;50.904;4.200;2023-01-28T03:06:39;6.20;99.90
24158;DHT22;12316;50.904;4.200;2023-01-28T03:09:08;6.20;99.90
24158;DHT22;12316;50.904;4.200;2023-01-28T03:12:11;6.10;99.90
24158;DHT22;12316;50.904;4.200;2023-01-28T03:15:21;6.00;99.90
24158;DHT22;12316;50.904;4.200;2023-01-28T03:21:11;6.00;99.90
24158;DHT22;12316;50.904;4.200;2023-01-28T03:24:14;5.90;99.90
24158;DHT22;12316;50.904;4.200;2023-01-28T03:27:16;5.90;99.90
24158;DHT22;12316;50.904;4.200;2023-01-28T03:30:13;5.90;99.90
24158;DHT22;12316;50.904;4.200;2023-01-28T03:32:58;5.60;99.90
24158;DHT22;12316;50.904;4.200;2023-01-28T03:35:43;5.50;99.90
24158;DHT22;12316;50.904;4.200;2023-01-28T03:38:29;5.40;99.90
24158;DHT22;12316;50.904;4.200;2023-01-28T03:41:01;5.40;99.90
24158;DHT22;12316;50.904;4.200;2023-01-28T03:43:30;5.50;99.90
24158;DHT22;12316;50.904;4.200;2023-01-28T03:45:56;5.60;99.90
24158;DHT22;12316;50.904;4.200;2023-01-28T03:48:24;5.60;99.90
24158;DHT22;12316;50.904;4.200;2023-01-28T03:50:51;5.70;99.90
24158;DHT22;12316;50.904;4.200;2023-01-28T03:53:18;5.70;99.90
24158;DHT22;12316;50.904;4.200;2023-01-28T03:55:45;5.70;99.90
24158;DHT22;12316;50.904;4.200;2023-01-28T03:58:12;5.70;99.90
24158;DHT22;12316;50.904;4.200;2023-01-28T04:00:38;5.70;99.90
24158;DHT22;12316;50.904;4.200;2023-01-28T04:03:12;5.80;99.90
24158;DHT22;12316;50.904;4.200;2023-01-28T04:05:46;5.90;99.90
24158;DHT22;12316;50.904;4.200;2023-01-28T04:08:22;5.80;99.90
24158;DHT22;12316;50.904;4.200;2023-01-28T04:10:48;5.90;99.90
24158;DHT22;12316;50.904;4.200;2023-01-28T04:13:14;5.80;99.90
24158;DHT22;12316;50.904;4.200;2023-01-28T04:15:41;5.60;99.90
24158;DHT22;12316;50.904;4.200;2023-01-28T04:18:08;5.60;99.90
24158;DHT22;12316;50.904;4.200;2023-01-28T04:20:34;5.60;99.90
24158;DHT22;12316;50.904;4.200;2023-01-28T04:22:59;5.60;99.90
24158;DHT22;12316;50.904;4.200;2023-01-28T04:25:25;5.60;99.90
24158;DHT22;12316;50.904;4.200;2023-01-28T04:27:50;5.70;99.90
24158;DHT22;12316;50.904;4.200;2023-01-28T04:30:16;5.70;99.90
24158;DHT22;12316;50.904;4.200;2023-01-28T04:32:45;5.70;99.90
24158;DHT22;12316;50.904;4.200;2023-01-28T04:35:11;5.70;99.90
24158;DHT22;12316;50.904;4.200;2023-01-28T04:37:36;5.60;99.90
24158;DHT22;12316;50.904;4.200;2023-01-28T04:40:02;5.60;99.90
24158;DHT22;12316;50.904;4.200;2023-01-28T04:42:28;5.60;99.90
24158;DHT22;12316;50.904;4.200;2023-01-28T04:44:53;5.70;99.90
24158;DHT22;12316;50.904;4.200;2023-01-28T04:47:20;5.80;99.90
24158;DHT22;12316;50.904;4.200;2023-01-28T04:49:45;5.90;99.90
24158;DHT22;12316;50.904;4.200;2023-01-28T04:52:11;5.90;99.90
24158;DHT22;12316;50.904;4.200;2023-01-28T04:54:37;5.90;99.90
24158;DHT22;12316;50.904;4.200;2023-01-28T04:57:02;6.00;99.90
24158;DHT22;12316;50.904;4.200;2023-01-28T04:59:28;6.00;99.90
24158;DHT22;12316;50.904;4.200;2023-01-28T05:01:53;5.90;99.90
24158;DHT22;12316;50.904;4.200;2023-01-28T05:04:19;5.90;99.90
24158;DHT22;12316;50.904;4.200;2023-01-28T05:06:45;5.90;99.90
24158;DHT22;12316;50.904;4.200;2023-01-28T05:09:10;5.90;99.90
24158;DHT22;12316;50.904;4.200;2023-01-28T05:11:37;5.70;99.90
24158;DHT22;12316;50.904;4.200;2023-01-28T05:14:02;5.60;99.90
24158;DHT22;12316;50.904;4.200;2023-01-28T05:16:30;5.70;99.90
24158;DHT22;12316;50.904;4.200;2023-01-28T05:18:56;5.60;99.90
24158;DHT22;12316;50.904;4.200;2023-01-28T05:21:22;5.80;99.90
24158;DHT22;12316;50.904;4.200;2023-01-28T05:23:47;5.80;99.90
24158;DHT22;12316;50.904;4.200;2023-01-28T05:26:14;5.70;99.90
24158;DHT22;12316;50.904;4.200;2023-01-28T05:28:40;5.40;99.90
24158;DHT22;12316;50.904;4.200;2023-01-28T05:31:06;5.10;99.90
24158;DHT22;12316;50.904;4.200;2023-01-28T05:33:32;5.00;99.90
24158;DHT22;12316;50.904;4.200;2023-01-28T05:35:57;5.20;99.90
24158;DHT22;12316;50.904;4.200;2023-01-28T05:38:23;5.20;99.90
24158;DHT22;12316;50.904;4.200;2023-01-28T05:40:49;5.20;99.90
24158;DHT22;12316;50.904;4.200;2023-01-28T05:43:15;5.20;99.90
24158;DHT22;12316;50.904;4.200;2023-01-28T05:45:40;5.10;99.90
24158;DHT22;12316;50.904;4.200;2023-01-28T05:48:06;4.90;99.90
24158;DHT22;12316;50.904;4.200;2023-01-28T05:50:32;4.70;99.90
24158;DHT22;12316;50.904;4.200;2023-01-28T05:52:57;4.70;99.90
24158;DHT22;12316;50.904;4.200;2023-01-28T05:55:23;4.70;99.90
24158;DHT22;12316;50.904;4.200;2023-01-28T05:57:49;4.60;99.90
24158;DHT22;12316;50.904;4.200;2023-01-28T06:00:15;4.80;99.90
24158;DHT22;12316;50.904;4.200;2023-01-28T06:02:42;4.70;99.90
24158;DHT22;12316;50.904;4.200;2023-01-28T06:05:08;4.60;99.90
24158;DHT22;12316;50.904;4.200;2023-01-28T06:07:34;4.60;99.90
24158;DHT22;12316;50.904;4.200;2023-01-28T06:09:59;4.60;99.90
24158;DHT22;12316;50.904;4.200;2023-01-28T06:12:25;4.60;99.90
24158;DHT22;12316;50.904;4.200;2023-01-28T06:14:50;4.70;99.90
24158;DHT22;12316;50.904;4.200;2023-01-28T06:17:16;4.70;99.90
24158;DHT22;12316;50.904;4.200;2023-01-28T06:19:42;4.80;99.90
24158;DHT22;12316;50.904;4.200;2023-01-28T06:22:08;5.10;99.90
24158;DHT22;12316;50.904;4.200;2023-01-28T06:24:34;5.30;99.90
24158;DHT22;12316;50.904;4.200;2023-01-28T06:26:59;5.40;99.90
24158;DHT22;12316;50.904;4.200;2023-01-28T06:29:25;5.50;99.90
24158;DHT22;12316;50.904;4.200;2023-01-28T06:31:50;5.60;99.90
24158;DHT22;12316;50.904;4.200;2023-01-28T06:34:16;5.60;99.90
24158;DHT22;12316;50.904;4.200;2023-01-28T06:36:42;5.60;99.90
24158;DHT22;12316;50.904;4.200;2023-01-28T06:39:07;5.50;99.90
24158;DHT22;12316;50.904;4.200;2023-01-28T06:41:33;5.50;99.90
24158;DHT22;12316;50.904;4.200;2023-01-28T06:43:58;5.60;99.90
24158;DHT22;12316;50.904;4.200;2023-01-28T06:46:24;5.60;99.90
24158;DHT22;12316;50.904;4.200;2023-01-28T06:48:50;5.70;99.90
24158;DHT22;12316;50.904;4.200;2023-01-28T06:51:15;5.70;99.90
24158;DHT22;12316;50.904;4.200;2023-01-28T06:53:41;5.70;99.90
24158;DHT22;12316;50.904;4.200;2023-01-28T06:56:08;5.70;99.90
24158;DHT22;12316;50.904;4.200;2023-01-28T06:58:35;5.80;99.90
24158;DHT22;12316;50.904;4.200;2023-01-28T07:01:01;5.80;99.90
24158;DHT22;12316;50.904;4.200;2023-01-28T07:03:28;5.80;99.90
24158;DHT22;12316;50.904;4.200;2023-01-28T07:05:53;5.80;99.90
24158;DHT22;12316;50.904;4.200;2023-01-28T07:08:19;5.80;99.90
24158;DHT22;12316;50.904;4.200;2023-01-28T07:10:44;5.80;99.90
24158;DHT22;12316;50.904;4.200;2023-01-28T07:13:10;5.90;99.90
24158;DHT22;12316;50.904;4.200;2023-01-28T07:15:36;5.90;99.90
24158;DHT22;12316;50.904;4.200;2023-01-28T07:18:01;5.80;99.90
24158;DHT22;12316;50.904;4.200;2023-01-28T07:20:27;5.70;99.90
24158;DHT22;12316;50.904;4.200;2023-01-28T07:22:52;5.70;99.90
24158;DHT22;12316;50.904;4.200;2023-01-28T07:25:18;5.70;99.90
24158;DHT22;12316;50.904;4.200;2023-01-28T07:27:51;5.60;99.90
24158;DHT22;12316;50.904;4.200;2023-01-28T07:30:18;5.60;99.90
24158;DHT22;12316;50.904;4.200;2023-01-28T07:32:45;5.70;99.90
24158;DHT22;12316;50.904;4.200;2023-01-28T07:35:11;5.70;99.90
24158;DHT22;12316;50.904;4.200;2023-01-28T07:37:38;5.70;99.90
24158;DHT22;12316;50.904;4.200;2023-01-28T07:40:04;5.70;99.90
24158;DHT22;12316;50.904;4.200;2023-01-28T07:42:30;5.50;99.90
24158;DHT22;12316;50.904;4.200;2023-01-28T07:44:56;5.40;99.90
24158;DHT22;12316;50.904;4.200;2023-01-28T07:47:21;5.30;99.90
24158;DHT22;12316;50.904;4.200;2023-01-28T07:49:47;5.30;99.90
24158;DHT22;12316;50.904;4.200;2023-01-28T07:52:12;5.20;99.90
24158;DHT22;12316;50.904;4.200;2023-01-28T07:54:38;5.30;99.90
24158;DHT22;12316;50.904;4.200;2023-01-28T07:57:08;5.30;99.90
24158;DHT22;12316;50.904;4.200;2023-01-28T07:59:36;5.30;99.90
24158;DHT22;12316;50.904;4.200;2023-01-28T08:02:02;5.20;99.90
24158;DHT22;12316;50.904;4.200;2023-01-28T08:04:29;5.10;99.90
24158;DHT22;12316;50.904;4.200;2023-01-28T08:06:56;5.20;99.90
24158;DHT22;12316;50.904;4.200;2023-01-28T08:09:21;5.20;99.90
24158;DHT22;12316;50.904;4.200;2023-01-28T08:11:47;5.30;99.90
24158;DHT22;12316;50.904;4.200;2023-01-28T08:14:13;5.30;99.90
24158;DHT22;12316;50.904;4.200;2023-01-28T08:16:38;5.20;99.90
24158;DHT22;12316;50.904;4.200;2023-01-28T08:19:04;5.20;99.90
24158;DHT22;12316;50.904;4.200;2023-01-28T08:21:29;5.20;99.90
24158;DHT22;12316;50.904;4.200;2023-01-28T08:23:56;5.10;99.90
24158;DHT22;12316;50.904;4.200;2023-01-28T08:26:21;5.20;99.90
24158;DHT22;12316;50.904;4.200;2023-01-28T08:28:47;5.30;99.90
24158;DHT22;12316;50.904;4.200;2023-01-28T08:31:13;5.30;99.90
24158;DHT22;12316;50.904;4.200;2023-01-28T08:33:38;5.40;99.90
24158;DHT22;12316;50.904;4.200;2023-01-28T08:36:04;5.40;99.90
24158;DHT22;12316;50.904;4.200;2023-01-28T08:38:30;5.40;99.90
24158;DHT22;12316;50.904;4.200;2023-01-28T08:40:56;5.40;99.90
24158;DHT22;12316;50.904;4.200;2023-01-28T08:43:22;5.40;99.90
24158;DHT22;12316;50.904;4.200;2023-01-28T08:45:48;5.50;99.90
24158;DHT22;12316;50.904;4.200;2023-01-28T08:48:15;5.40;99.90
24158;DHT22;12316;50.904;4.200;2023-01-28T08:50:41;5.40;99.90
24158;DHT22;12316;50.904;4.200;2023-01-28T08:53:10;5.20;99.90
24158;DHT22;12316;50.904;4.200;2023-01-28T08:55:36;5.20;99.90
24158;DHT22;12316;50.904;4.200;2023-01-28T08:58:10;5.20;99.90
24158;DHT22;12316;50.904;4.200;2023-01-28T09:00:37;5.30;99.90
24158;DHT22;12316;50.904;4.200;2023-01-28T09:03:03;5.00;99.90
24158;DHT22;12316;50.904;4.200;2023-01-28T09:05:29;5.00;99.90
24158;DHT22;12316;50.904;4.200;2023-01-28T09:07:56;4.90;99.90
24158;DHT22;12316;50.904;4.200;2023-01-28T09:10:24;4.90;99.90
24158;DHT22;12316;50.904;4.200;2023-01-28T09:12:50;5.10;99.90
24158;DHT22;12316;50.904;4.200;2023-01-28T09:15:16;5.10;99.90
24158;DHT22;12316;50.904;4.200;2023-01-28T09:17:42;4.80;99.90
24158;DHT22;12316;50.904;4.200;2023-01-28T09:20:08;4.50;99.90
24158;DHT22;12316;50.904;4.200;2023-01-28T09:22:35;4.50;99.90
24158;DHT22;12316;50.904;4.200;2023-01-28T09:25:00;4.50;99.90
24158;DHT22;12316;50.904;4.200;2023-01-28T09:27:26;4.60;99.90
24158;DHT22;12316;50.904;4.200;2023-01-28T09:29:51;4.80;99.90
24158;DHT22;12316;50.904;4.200;2023-01-28T09:32:17;4.90;99.90
24158;DHT22;12316;50.904;4.200;2023-01-28T09:34:43;5.00;99.90
24158;DHT22;12316;50.904;4.200;2023-01-28T09:37:09;5.30;99.90
24158;DHT22;12316;50.904;4.200;2023-01-28T09:39:36;5.20;99.90
24158;DHT22;12316;50.904;4.200;2023-01-28T09:49:53;4.60;99.90
24158;DHT22;12316;50.904;4.200;2023-01-28T09:52:23;4.80;99.90
24158;DHT22;12316;50.904;4.200;2023-01-28T09:57:38;5.00;99.90
24158;DHT22;12316;50.904;4.200;2023-01-28T10:00:15;4.90;99.90
24158;DHT22;12316;50.904;4.200;2023-01-28T10:06:02;4.80;99.90
24158;DHT22;12316;50.904;4.200;2023-01-28T10:08:33;4.90;99.90
24158;DHT22;12316;50.904;4.200;2023-01-28T10:13:55;5.00;99.90
24158;DHT22;12316;50.904;4.200;2023-01-28T10:16:40;5.20;99.90
24158;DHT22;12316;50.904;4.200;2023-01-28T10:21:45;5.40;99.90
24158;DHT22;12316;50.904;4.200;2023-01-28T10:24:26;5.40;99.90
24158;DHT22;12316;50.904;4.200;2023-01-28T10:26:55;5.20;99.90
24158;DHT22;12316;50.904;4.200;2023-01-28T10:29:24;5.30;99.90
24158;DHT22;12316;50.904;4.200;2023-01-28T10:32:33;5.30;99.90
24158;DHT22;12316;50.904;4.200;2023-01-28T10:35:00;5.30;99.90
24158;DHT22;12316;50.904;4.200;2023-01-28T10:37:33;5.10;99.90
24158;DHT22;12316;50.904;4.200;2023-01-28T10:39:59;5.30;99.90
24158;DHT22;12316;50.904;4.200;2023-01-28T10:42:35;5.30;99.90
24158;DHT22;12316;50.904;4.200;2023-01-28T10:47:55;5.40;99.90
24158;DHT22;12316;50.904;4.200;2023-01-28T10:50:26;5.40;99.90
24158;DHT22;12316;50.904;4.200;2023-01-28T10:52:59;5.50;99.90
24158;DHT22;12316;50.904;4.200;2023-01-28T10:55:34;5.50;99.90
24158;DHT22;12316;50.904;4.200;2023-01-28T10:58:03;5.30;99.90
24158;DHT22;12316;50.904;4.200;2023-01-28T11:00:34;5.20;99.90
24158;DHT22;12316;50.904;4.200;2023-01-28T11:03:00;5.30;99.90
24158;DHT22;12316;50.904;4.200;2023-01-28T11:05:30;5.20;99.90
24158;DHT22;12316;50.904;4.200;2023-01-28T11:08:08;5.40;99.90
24158;DHT22;12316;50.904;4.200;2023-01-28T11:10:37;5.50;99.90
24158;DHT22;12316;50.904;4.200;2023-01-28T11:13:14;5.50;99.90
24158;DHT22;12316;50.904;4.200;2023-01-28T11:16:01;5.30;99.90
24158;DHT22;12316;50.904;4.200;2023-01-28T11:18:32;5.30;99.90
24158;DHT22;12316;50.904;4.200;2023-01-28T11:21:02;5.60;99.90
24158;DHT22;12316;50.904;4.200;2023-01-28T11:23:38;5.80;99.90
24158;DHT22;12316;50.904;4.200;2023-01-28T11:26:18;5.90;99.90
24158;DHT22;12316;50.904;4.200;2023-01-28T11:28:45;5.80;99.90
24158;DHT22;12316;50.904;4.200;2023-01-28T11:31:13;5.60;99.90
24158;DHT22;12316;50.904;4.200;2023-01-28T11:33:53;5.60;99.90
24158;DHT22;12316;50.904;4.200;2023-01-28T11:36:24;5.70;99.90
24158;DHT22;12316;50.904;4.200;2023-01-28T11:38:58;5.80;99.90
24158;DHT22;12316;50.904;4.200;2023-01-28T11:41:33;6.00;99.90
24158;DHT22;12316;50.904;4.200;2023-01-28T11:44:23;5.80;99.90
24158;DHT22;12316;50.904;4.200;2023-01-28T11:47:12;5.50;99.90
24158;DHT22;12316;50.904;4.200;2023-01-28T12:06:25;5.70;99.90
24158;DHT22;12316;50.904;4.200;2023-01-28T12:20:30;6.10;99.90
24158;DHT22;12316;50.904;4.200;2023-01-28T12:23:13;6.10;99.90
24158;DHT22;12316;50.904;4.200;2023-01-28T12:26:11;6.10;99.90
24158;DHT22;12316;50.904;4.200;2023-01-28T12:29:03;6.00;99.90
24158;DHT22;12316;50.904;4.200;2023-01-28T12:40:04;5.30;99.90
24158;DHT22;12316;50.904;4.200;2023-01-28T12:42:43;5.30;99.90
24158;DHT22;12316;50.904;4.200;2023-01-28T12:45:30;5.20;99.90
24158;DHT22;12316;50.904;4.200;2023-01-28T12:48:08;5.30;99.90
24158;DHT22;12316;50.904;4.200;2023-01-28T12:50:43;5.30;99.90
24158;DHT22;12316;50.904;4.200;2023-01-28T12:53:48;5.50;99.90
24158;DHT22;12316;50.904;4.200;2023-01-28T12:56:26;5.60;99.90
24158;DHT22;12316;50.904;4.200;2023-01-28T12:59:13;5.60;99.90
24158;DHT22;12316;50.904;4.200;2023-01-28T13:07:01;6.00;99.90
24158;DHT22;12316;50.904;4.200;2023-01-28T13:09:28;6.20;99.90
24158;DHT22;12316;50.904;4.200;2023-01-28T13:11:57;6.30;99.90
24158;DHT22;12316;50.904;4.200;2023-01-28T13:14:28;6.20;99.90
24158;DHT22;12316;50.904;4.200;2023-01-28T13:16:55;5.90;99.90
24158;DHT22;12316;50.904;4.200;2023-01-28T13:19:23;5.90;99.90
24158;DHT22;12316;50.904;4.200;2023-01-28T13:21:49;5.90;99.90
24158;DHT22;12316;50.904;4.200;2023-01-28T13:26:44;6.20;99.90
24158;DHT22;12316;50.904;4.200;2023-01-28T13:29:31;6.10;99.90
24158;DHT22;12316;50.904;4.200;2023-01-28T13:32:00;6.00;99.90
24158;DHT22;12316;50.904;4.200;2023-01-28T13:34:40;6.20;99.90
24158;DHT22;12316;50.904;4.200;2023-01-28T13:39:59;5.90;99.90
24158;DHT22;12316;50.904;4.200;2023-01-28T13:42:29;5.80;99.90
24158;DHT22;12316;50.904;4.200;2023-01-28T13:44:55;5.80;99.90
24158;DHT22;12316;50.904;4.200;2023-01-28T13:47:30;5.70;99.90
24158;DHT22;12316;50.904;4.200;2023-01-28T13:50:05;6.00;99.90
24158;DHT22;12316;50.904;4.200;2023-01-28T13:52:35;6.20;99.90
24158;DHT22;12316;50.904;4.200;2023-01-28T14:08:59;6.40;99.90
24158;DHT22;12316;50.904;4.200;2023-01-28T14:17:48;6.80;99.90
24158;DHT22;12316;50.904;4.200;2023-01-28T14:19:49;6.80;99.90
24158;DHT22;12316;50.904;4.200;2023-01-28T14:22:18;6.70;99.90
24158;DHT22;12316;50.904;4.200;2023-01-28T14:24:44;6.60;99.90
24158;DHT22;12316;50.904;4.200;2023-01-28T14:32:28;6.70;99.90
24158;DHT22;12316;50.904;4.200;2023-01-28T14:34:57;6.70;99.90
24158;DHT22;12316;50.904;4.200;2023-01-28T14:37:27;6.70;99.90
24158;DHT22;12316;50.904;4.200;2023-01-28T14:39:57;6.40;99.90
24158;DHT22;12316;50.904;4.200;2023-01-28T14:42:28;6.30;99.90
24158;DHT22;12316;50.904;4.200;2023-01-28T14:45:23;6.00;99.90
24158;DHT22;12316;50.904;4.200;2023-01-28T14:48:22;6.00;99.90
24158;DHT22;12316;50.904;4.200;2023-01-28T14:59:25;5.80;99.90
24158;DHT22;12316;50.904;4.200;2023-01-28T15:01:58;5.70;99.90
24158;DHT22;12316;50.904;4.200;2023-01-28T15:04:29;5.70;99.90
24158;DHT22;12316;50.904;4.200;2023-01-28T15:06:54;5.70;99.90
24158;DHT22;12316;50.904;4.200;2023-01-28T15:09:21;5.60;99.90
24158;DHT22;12316;50.904;4.200;2023-01-28T15:11:50;5.60;99.90
24158;DHT22;12316;50.904;4.200;2023-01-28T15:14:28;5.60;99.90
24158;DHT22;12316;50.904;4.200;2023-01-28T15:16:55;5.60;99.90
24158;DHT22;12316;50.904;4.200;2023-01-28T15:19:29;5.70;99.90
24158;DHT22;12316;50.904;4.200;2023-01-28T15:22:04;5.70;99.90
24158;DHT22;12316;50.904;4.200;2023-01-28T15:24:33;5.70;99.90
24158;DHT22;12316;50.904;4.200;2023-01-28T15:27:00;5.70;99.90
24158;DHT22;12316;50.904;4.200;2023-01-28T15:29:32;5.50;99.90
24158;DHT22;12316;50.904;4.200;2023-01-28T15:32:00;5.60;99.90
24158;DHT22;12316;50.904;4.200;2023-01-28T15:34:26;5.60;99.90
24158;DHT22;12316;50.904;4.200;2023-01-28T15:36:56;5.80;99.90
24158;DHT22;12316;50.904;4.200;2023-01-28T15:39:23;5.70;99.90
24158;DHT22;12316;50.904;4.200;2023-01-28T15:42:02;5.70;99.90
24158;DHT22;12316;50.904;4.200;2023-01-28T15:44:35;5.70;99.90
24158;DHT22;12316;50.904;4.200;2023-01-28T15:47:10;5.60;99.90
24158;DHT22;12316;50.904;4.200;2023-01-28T15:49:42;5.50;99.90
24158;DHT22;12316;50.904;4.200;2023-01-28T15:52:09;5.40;99.90
24158;DHT22;12316;50.904;4.200;2023-01-28T15:54:43;5.30;99.90
24158;DHT22;12316;50.904;4.200;2023-01-28T15:57:33;5.30;99.90
24158;DHT22;12316;50.904;4.200;2023-01-28T16:00:23;5.40;99.90
24158;DHT22;12316;50.904;4.200;2023-01-28T16:02:52;5.30;99.90
24158;DHT22;12316;50.904;4.200;2023-01-28T16:05:33;5.40;99.90
24158;DHT22;12316;50.904;4.200;2023-01-28T16:08:07;5.50;99.90
24158;DHT22;12316;50.904;4.200;2023-01-28T16:10:34;5.50;99.90
24158;DHT22;12316;50.904;4.200;2023-01-28T16:13:15;5.50;99.90
24158;DHT22;12316;50.904;4.200;2023-01-28T16:15:47;5.50;99.90
24158;DHT22;12316;50.904;4.200;2023-01-28T16:18:46;5.50;99.90
24158;DHT22;12316;50.904;4.200;2023-01-28T16:21:20;5.50;99.90
24158;DHT22;12316;50.904;4.200;2023-01-28T16:24:01;5.50;99.90
24158;DHT22;12316;50.904;4.200;2023-01-28T16:26:28;5.50;99.90
24158;DHT22;12316;50.904;4.200;2023-01-28T16:28:54;5.60;99.90
24158;DHT22;12316;50.904;4.200;2023-01-28T16:31:20;5.60;99.90
24158;DHT22;12316;50.904;4.200;2023-01-28T16:33:46;5.60;99.90
24158;DHT22;12316;50.904;4.200;2023-01-28T16:36:14;5.70;99.90
24158;DHT22;12316;50.904;4.200;2023-01-28T16:38:40;5.70;99.90
24158;DHT22;12316;50.904;4.200;2023-01-28T16:41:14;5.80;99.90
24158;DHT22;12316;50.904;4.200;2023-01-28T16:43:44;5.80;99.90
24158;DHT22;12316;50.904;4.200;2023-01-28T16:46:11;5.80;99.90
24158;DHT22;12316;50.904;4.200;2023-01-28T16:48:37;5.80;99.90
24158;DHT22;12316;50.904;4.200;2023-01-28T16:51:03;5.80;99.90
24158;DHT22;12316;50.904;4.200;2023-01-28T16:53:31;5.80;99.90
24158;DHT22;12316;50.904;4.200;2023-01-28T16:55:58;5.80;99.90
24158;DHT22;12316;50.904;4.200;2023-01-28T16:58:25;5.70;99.90
24158;DHT22;12316;50.904;4.200;2023-01-28T17:00:52;5.60;99.90
24158;DHT22;12316;50.904;4.200;2023-01-28T17:03:17;5.50;99.90
24158;DHT22;12316;50.904;4.200;2023-01-28T17:05:44;5.40;99.90
24158;DHT22;12316;50.904;4.200;2023-01-28T17:08:10;5.30;99.90
24158;DHT22;12316;50.904;4.200;2023-01-28T17:10:35;5.20;99.90
24158;DHT22;12316;50.904;4.200;2023-01-28T17:13:02;5.10;99.90
24158;DHT22;12316;50.904;4.200;2023-01-28T17:15:28;4.90;99.90
24158;DHT22;12316;50.904;4.200;2023-01-28T17:17:53;4.70;99.90
24158;DHT22;12316;50.904;4.200;2023-01-28T17:20:20;4.50;99.90
24158;DHT22;12316;50.904;4.200;2023-01-28T17:22:46;4.40;99.90
24158;DHT22;12316;50.904;4.200;2023-01-28T17:25:11;4.20;99.90
24158;DHT22;12316;50.904;4.200;2023-01-28T17:27:37;4.20;99.90
24158;DHT22;12316;50.904;4.200;2023-01-28T17:30:04;4.10;99.90
24158;DHT22;12316;50.904;4.200;2023-01-28T17:32:29;4.10;99.90
24158;DHT22;12316;50.904;4.200;2023-01-28T17:34:55;4.00;99.90
24158;DHT22;12316;50.904;4.200;2023-01-28T17:37:21;4.00;99.90
24158;DHT22;12316;50.904;4.200;2023-01-28T17:39:46;3.80;99.90
24158;DHT22;12316;50.904;4.200;2023-01-28T17:42:12;3.80;99.90
24158;DHT22;12316;50.904;4.200;2023-01-28T17:44:37;3.70;99.90
24158;DHT22;12316;50.904;4.200;2023-01-28T17:47:03;3.60;99.90
24158;DHT22;12316;50.904;4.200;2023-01-28T17:49:29;3.60;99.90
24158;DHT22;12316;50.904;4.200;2023-01-28T17:51:54;3.50;99.90
24158;DHT22;12316;50.904;4.200;2023-01-28T17:54:22;3.40;99.90
24158;DHT22;12316;50.904;4.200;2023-01-28T17:56:47;3.40;99.90
24158;DHT22;12316;50.904;4.200;2023-01-28T17:59:13;3.40;99.90
24158;DHT22;12316;50.904;4.200;2023-01-28T18:01:42;3.30;99.90
24158;DHT22;12316;50.904;4.200;2023-01-28T18:04:08;3.20;99.90
24158;DHT22;12316;50.904;4.200;2023-01-28T18:06:35;3.20;99.90
24158;DHT22;12316;50.904;4.200;2023-01-28T18:09:01;3.10;99.90
24158;DHT22;12316;50.904;4.200;2023-01-28T18:11:27;3.00;99.90
24158;DHT22;12316;50.904;4.200;2023-01-28T18:13:54;2.90;99.90